createdAt,value
2018-09-01T00:00:48.922Z,16.47
2018-09-01T00:01:48.559Z,16.46
2018-09-01T00:02:48.931Z,16.43
2018-09-01T00:03:48.763Z,16.43
2018-09-01T00:04:48.579Z,16.43
2018-09-01T00:05:48.597Z,16.42
2018-09-01T00:06:48.593Z,16.42
2018-09-01T00:07:48.590Z,16.43
2018-09-01T00:08:48.626Z,16.42
2018-09-01T00:09:48.586Z,16.42
2018-09-01T00:10:48.835Z,16.4
2018-09-01T00:11:48.632Z,16.4
2018-09-01T00:12:48.708Z,16.37
2018-09-01T00:13:48.648Z,16.4
2018-09-01T00:14:48.576Z,16.4
2018-09-01T00:15:48.568Z,16.4
2018-09-01T00:16:48.579Z,16.39
2018-09-01T00:17:48.569Z,16.37
2018-09-01T00:18:48.728Z,16.36
2018-09-01T00:19:48.597Z,16.32
2018-09-01T00:20:48.587Z,16.31
2018-09-01T00:21:48.569Z,16.28
2018-09-01T00:22:48.879Z,16.29
2018-09-01T00:23:48.616Z,16.29
2018-09-01T00:24:48.758Z,16.28
2018-09-01T00:25:48.639Z,16.29
2018-09-01T00:26:48.656Z,16.28
2018-09-01T00:27:48.602Z,16.26
2018-09-01T00:28:48.865Z,16.26
2018-09-01T00:29:48.829Z,16.16
2018-09-01T00:30:49.254Z,16.11
2018-09-01T00:31:48.661Z,16.08
2018-09-01T00:32:48.846Z,16.09
2018-09-01T00:33:48.592Z,16.05
2018-09-01T00:34:48.798Z,16.07
2018-09-01T00:35:48.606Z,16.07
2018-09-01T00:36:48.589Z,16.08
2018-09-01T00:37:48.782Z,16.04
2018-09-01T00:38:48.603Z,16.02
2018-09-01T00:39:48.608Z,16.04
2018-09-01T00:40:48.639Z,16.02
2018-09-01T00:41:48.680Z,16.01
2018-09-01T00:42:48.595Z,16.02
2018-09-01T00:43:48.723Z,16.04
2018-09-01T00:44:48.619Z,16.01
2018-09-01T00:45:48.628Z,16.02
2018-09-01T00:46:48.610Z,16.04
2018-09-01T00:47:48.608Z,16.02
2018-09-01T00:48:48.739Z,16.04
2018-09-01T00:49:48.645Z,16.04
2018-09-01T00:50:48.661Z,16.04
2018-09-01T00:51:48.626Z,16.02
2018-09-01T00:52:48.725Z,16.01
2018-09-01T00:53:48.655Z,15.99
2018-09-01T00:54:48.697Z,15.99
2018-09-01T00:55:48.636Z,15.97
2018-09-01T00:56:48.724Z,15.97
2018-09-01T00:57:49.020Z,15.95
2018-09-01T00:58:48.749Z,15.92
2018-09-01T00:59:48.615Z,15.9
2018-09-01T01:00:49.221Z,15.78
2018-09-01T01:01:48.966Z,15.78
2018-09-01T01:02:49.051Z,15.76
2018-09-01T01:03:48.626Z,15.71
2018-09-01T01:04:48.665Z,15.7
2018-09-01T01:05:48.862Z,15.63
2018-09-01T01:06:48.719Z,15.66
2018-09-01T01:07:48.723Z,15.66
2018-09-01T01:08:48.721Z,15.62
2018-09-01T01:09:48.624Z,15.62
2018-09-01T01:10:48.688Z,15.52
2018-09-01T01:11:48.642Z,15.49
2018-09-01T01:12:48.623Z,15.5
2018-09-01T01:13:48.615Z,15.49
2018-09-01T01:14:48.709Z,15.5
2018-09-01T01:15:48.687Z,15.52
2018-09-01T01:16:48.716Z,15.5
2018-09-01T01:17:48.732Z,15.5
2018-09-01T01:18:48.646Z,15.53
2018-09-01T01:19:48.706Z,15.5
2018-09-01T01:20:48.695Z,15.52
2018-09-01T01:21:48.661Z,15.5
2018-09-01T01:22:48.990Z,15.53
2018-09-01T01:23:48.642Z,15.52
2018-09-01T01:24:48.702Z,15.53
2018-09-01T01:25:48.823Z,15.52
2018-09-01T01:26:48.708Z,15.56
2018-09-01T01:27:48.650Z,15.52
2018-09-01T01:28:48.730Z,15.5
2018-09-01T01:29:48.668Z,15.53
2018-09-01T01:30:48.642Z,15.52
2018-09-01T01:31:48.722Z,15.54
2018-09-01T01:32:48.712Z,15.53
2018-09-01T01:33:48.710Z,15.52
2018-09-01T01:34:48.772Z,15.49
2018-09-01T01:35:49.076Z,15.46
2018-09-01T01:36:48.743Z,15.47
2018-09-01T01:37:48.684Z,15.49
2018-09-01T01:38:48.791Z,15.46
2018-09-01T01:39:48.690Z,15.47
2018-09-01T01:40:48.752Z,15.46
2018-09-01T01:41:49.224Z,15.5
2018-09-01T01:42:48.671Z,15.47
2018-09-01T01:43:48.690Z,15.46
2018-09-01T01:44:48.720Z,15.46
2018-09-01T01:45:48.670Z,15.46
2018-09-01T01:46:48.661Z,15.45
2018-09-01T01:47:49.056Z,15.5
2018-09-01T01:48:48.675Z,15.5
2018-09-01T01:49:48.970Z,15.5
2018-09-01T01:50:48.997Z,15.5
2018-09-01T01:51:49.188Z,15.47
2018-09-01T01:52:48.780Z,15.52
2018-09-01T01:53:48.681Z,15.49
2018-09-01T01:54:48.678Z,15.42
2018-09-01T01:55:48.684Z,15.42
2018-09-01T01:56:48.696Z,15.42
2018-09-01T01:57:48.686Z,15.45
2018-09-01T01:58:48.684Z,15.47
2018-09-01T01:59:48.673Z,15.43
2018-09-01T02:00:48.685Z,15.45
2018-09-01T02:01:48.705Z,15.42
2018-09-01T02:02:48.763Z,15.38
2018-09-01T02:03:48.682Z,15.38
2018-09-01T02:04:48.716Z,15.35
2018-09-01T02:05:48.745Z,15.32
2018-09-01T02:06:48.984Z,15.34
2018-09-01T02:07:49.335Z,15.35
2018-09-01T02:08:49.101Z,15.32
2018-09-01T02:09:48.774Z,15.17
2018-09-01T02:10:48.702Z,15.12
2018-09-01T02:11:48.708Z,15.12
2018-09-01T02:12:48.691Z,15.12
2018-09-01T02:13:48.707Z,15.11
2018-09-01T02:14:48.746Z,15.09
2018-09-01T02:15:48.709Z,15.12
2018-09-01T02:16:48.731Z,15.07
2018-09-01T02:17:48.781Z,15.09
2018-09-01T02:18:48.969Z,15.09
2018-09-01T02:19:48.735Z,15.12
2018-09-01T02:20:48.713Z,15.07
2018-09-01T02:21:48.732Z,15.04
2018-09-01T02:22:48.848Z,15.07
2018-09-01T02:23:48.721Z,15.05
2018-09-01T02:24:48.714Z,15.08
2018-09-01T02:25:48.732Z,15.08
2018-09-01T02:26:48.814Z,15.08
2018-09-01T02:27:49.045Z,15.04
2018-09-01T02:28:48.716Z,15.04
2018-09-01T02:29:48.839Z,15.04
2018-09-01T02:30:48.717Z,15.02
2018-09-01T02:31:48.762Z,15.02
2018-09-01T02:32:48.848Z,15.01
2018-09-01T02:33:48.994Z,15
2018-09-01T02:34:48.757Z,14.98
2018-09-01T02:35:49.102Z,14.98
2018-09-01T02:36:49.076Z,14.97
2018-09-01T02:37:48.753Z,14.94
2018-09-01T02:38:48.740Z,14.91
2018-09-01T02:39:49.174Z,14.92
2018-09-01T02:40:48.747Z,14.92
2018-09-01T02:41:48.911Z,14.92
2018-09-01T02:42:48.790Z,14.92
2018-09-01T02:43:48.737Z,14.91
2018-09-01T02:44:49.053Z,14.9
2018-09-01T02:45:48.728Z,14.91
2018-09-01T02:46:49.217Z,14.91
2018-09-01T02:47:49.100Z,14.9
2018-09-01T02:48:48.752Z,14.9
2018-09-01T02:49:49.008Z,14.9
2018-09-01T02:50:48.754Z,14.88
2018-09-01T02:51:48.759Z,14.84
2018-09-01T02:52:48.781Z,14.76
2018-09-01T02:53:48.874Z,14.72
2018-09-01T02:54:48.815Z,14.74
2018-09-01T02:55:48.757Z,14.76
2018-09-01T02:56:48.919Z,14.73
2018-09-01T02:57:48.754Z,14.64
2018-09-01T02:58:48.789Z,14.58
2018-09-01T02:59:49.108Z,14.58
2018-09-01T03:00:48.994Z,14.56
2018-09-01T03:01:48.990Z,14.59
2018-09-01T03:02:48.766Z,14.62
2018-09-01T03:03:48.775Z,14.62
2018-09-01T03:04:48.763Z,14.55
2018-09-01T03:05:48.944Z,14.46
2018-09-01T03:06:48.941Z,14.39
2018-09-01T03:07:48.743Z,14.4
2018-09-01T03:08:48.759Z,14.4
2018-09-01T03:09:48.826Z,14.42
2018-09-01T03:10:48.795Z,14.45
2018-09-01T03:11:48.800Z,14.45
2018-09-01T03:12:48.787Z,14.46
2018-09-01T03:13:48.771Z,14.46
2018-09-01T03:14:48.784Z,14.4
2018-09-01T03:15:48.785Z,14.4
2018-09-01T03:16:48.792Z,14.39
2018-09-01T03:17:48.789Z,14.42
2018-09-01T03:18:48.828Z,14.42
2018-09-01T03:19:48.817Z,14.28
2018-09-01T03:20:48.783Z,14.28
2018-09-01T03:21:48.843Z,14.31
2018-09-01T03:22:48.823Z,14.29
2018-09-01T03:23:48.790Z,14.32
2018-09-01T03:24:48.985Z,14.21
2018-09-01T03:25:48.888Z,14.22
2018-09-01T03:26:48.798Z,14.25
2018-09-01T03:27:49.071Z,14.29
2018-09-01T03:28:49.061Z,14.25
2018-09-01T03:29:49.079Z,14.25
2018-09-01T03:30:48.790Z,14.25
2018-09-01T03:31:49.006Z,14.21
2018-09-01T03:32:48.842Z,14.22
2018-09-01T03:33:48.847Z,14.21
2018-09-01T03:34:48.875Z,14.21
2018-09-01T03:35:48.993Z,14.21
2018-09-01T03:36:49.000Z,14.17
2018-09-01T03:37:48.810Z,14.17
2018-09-01T03:38:49.120Z,14.21
2018-09-01T03:39:49.050Z,14.15
2018-09-01T03:40:48.984Z,14.11
2018-09-01T03:41:49.335Z,14.04
2018-09-01T03:42:49.133Z,13.91
2018-09-01T03:43:48.951Z,13.91
2018-09-01T03:44:48.825Z,13.96
2018-09-01T03:45:48.967Z,13.91
2018-09-01T03:46:49.133Z,13.91
2018-09-01T03:47:48.832Z,13.93
2018-09-01T03:48:48.811Z,13.9
2018-09-01T03:49:48.845Z,13.93
2018-09-01T03:50:48.998Z,13.97
2018-09-01T03:51:48.894Z,13.97
2018-09-01T03:52:48.811Z,13.94
2018-09-01T03:53:48.814Z,13.96
2018-09-01T03:54:48.951Z,13.94
2018-09-01T03:55:49.005Z,13.96
2018-09-01T03:56:48.845Z,13.97
2018-09-01T03:57:48.951Z,13.94
2018-09-01T03:58:49.173Z,13.94
2018-09-01T03:59:49.099Z,13.96
2018-09-01T04:00:48.950Z,13.94
2018-09-01T04:01:48.962Z,13.91
2018-09-01T04:02:48.832Z,13.94
2018-09-01T04:03:48.818Z,13.96
2018-09-01T04:04:48.864Z,13.93
2018-09-01T04:05:48.975Z,13.9
2018-09-01T04:06:49.011Z,13.89
2018-09-01T04:07:49.006Z,13.87
2018-09-01T04:08:49.120Z,13.86
2018-09-01T04:09:48.849Z,13.79
2018-09-01T04:10:49.200Z,13.76
2018-09-01T04:11:49.006Z,13.74
2018-09-01T04:12:48.990Z,13.76
2018-09-01T04:13:48.848Z,13.76
2018-09-01T04:14:48.978Z,13.77
2018-09-01T04:15:48.863Z,13.76
2018-09-01T04:16:48.828Z,13.7
2018-09-01T04:17:49.048Z,13.72
2018-09-01T04:18:48.959Z,13.73
2018-09-01T04:19:48.853Z,13.72
2018-09-01T04:20:49.056Z,13.72
2018-09-01T04:21:48.861Z,13.72
2018-09-01T04:22:48.902Z,13.74
2018-09-01T04:23:48.846Z,13.73
2018-09-01T04:24:48.899Z,13.76
2018-09-01T04:25:48.853Z,13.76
2018-09-01T04:26:48.870Z,13.74
2018-09-01T04:27:48.915Z,13.74
2018-09-01T04:28:48.850Z,13.73
2018-09-01T04:29:48.869Z,13.72
2018-09-01T04:30:48.882Z,13.74
2018-09-01T04:31:49.018Z,13.73
2018-09-01T04:32:48.880Z,13.73
2018-09-01T04:33:48.932Z,13.74
2018-09-01T04:34:48.923Z,13.69
2018-09-01T04:35:48.872Z,13.63
2018-09-01T04:36:48.890Z,13.56
2018-09-01T04:37:48.906Z,13.46
2018-09-01T04:38:48.864Z,13.45
2018-09-01T04:39:48.853Z,13.43
2018-09-01T04:40:48.877Z,13.42
2018-09-01T04:41:48.970Z,13.46
2018-09-01T04:42:49.249Z,13.45
2018-09-01T04:43:48.921Z,13.43
2018-09-01T04:44:48.854Z,13.42
2018-09-01T04:45:48.866Z,13.45
2018-09-01T04:46:48.867Z,13.41
2018-09-01T04:47:49.219Z,13.42
2018-09-01T04:48:49.327Z,13.42
2018-09-01T04:49:48.957Z,13.36
2018-09-01T04:50:48.973Z,13.31
2018-09-01T04:51:48.887Z,13.29
2018-09-01T04:52:48.932Z,13.25
2018-09-01T04:53:48.850Z,13.19
2018-09-01T04:54:48.962Z,13.19
2018-09-01T04:55:49.018Z,13.18
2018-09-01T04:56:49.062Z,13.21
2018-09-01T04:57:48.892Z,13.24
2018-09-01T04:58:48.947Z,13.25
2018-09-01T04:59:48.964Z,13.28
2018-09-01T05:00:49.051Z,13.28
2018-09-01T05:01:49.073Z,13.28
2018-09-01T05:02:49.184Z,13.28
2018-09-01T05:03:48.985Z,13.27
2018-09-01T05:04:49.203Z,13.28
2018-09-01T05:05:48.967Z,13.32
2018-09-01T05:06:48.895Z,13.29
2018-09-01T05:07:49.018Z,13.28
2018-09-01T05:08:48.891Z,13.31
2018-09-01T05:09:48.972Z,13.32
2018-09-01T05:10:48.921Z,13.32
2018-09-01T05:11:49.050Z,13.34
2018-09-01T05:12:48.950Z,13.32
2018-09-01T05:13:49.265Z,13.32
2018-09-01T05:14:48.994Z,13.35
2018-09-01T05:15:49.572Z,13.32
2018-09-01T05:16:49.013Z,13.35
2018-09-01T05:17:49.287Z,13.39
2018-09-01T05:18:49.032Z,13.38
2018-09-01T05:19:48.977Z,13.39
2018-09-01T05:20:48.997Z,13.38
2018-09-01T05:21:48.989Z,13.27
2018-09-01T05:22:49.009Z,13.18
2018-09-01T05:23:49.100Z,13.08
2018-09-01T05:24:48.995Z,12.97
2018-09-01T05:25:49.344Z,12.94
2018-09-01T05:26:49.139Z,13.01
2018-09-01T05:27:48.936Z,13.03
2018-09-01T05:28:48.918Z,12.97
2018-09-01T05:29:48.908Z,12.97
2018-09-01T05:30:48.931Z,12.87
2018-09-01T05:31:48.976Z,12.88
2018-09-01T05:32:49.076Z,12.94
2018-09-01T05:33:48.983Z,13
2018-09-01T05:34:49.030Z,13.04
2018-09-01T05:35:48.975Z,13.06
2018-09-01T05:36:49.000Z,13.11
2018-09-01T05:37:48.927Z,13.1
2018-09-01T05:38:48.944Z,13.04
2018-09-01T05:39:49.050Z,13.06
2018-09-01T05:40:48.916Z,13.03
2018-09-01T05:41:48.934Z,12.99
2018-09-01T05:42:48.928Z,12.97
2018-09-01T05:43:49.580Z,13.01
2018-09-01T05:44:48.941Z,13.06
2018-09-01T05:45:48.922Z,13.01
2018-09-01T05:46:48.938Z,13
2018-09-01T05:47:48.937Z,12.87
2018-09-01T05:48:48.931Z,12.93
2018-09-01T05:49:48.934Z,12.86
2018-09-01T05:50:49.256Z,12.86
2018-09-01T05:51:49.019Z,12.86
2018-09-01T05:52:48.957Z,12.83
2018-09-01T05:53:48.944Z,12.83
2018-09-01T05:54:48.923Z,12.83
2018-09-01T05:55:48.938Z,12.86
2018-09-01T05:56:48.966Z,12.82
2018-09-01T05:57:48.960Z,12.84
2018-09-01T05:58:48.939Z,12.79
2018-09-01T05:59:48.923Z,12.83
2018-09-01T06:00:49.110Z,12.93
2018-09-01T06:01:48.969Z,12.99
2018-09-01T06:02:48.973Z,13.03
2018-09-01T06:03:49.054Z,13.08
2018-09-01T06:04:48.993Z,13.11
2018-09-01T06:05:49.141Z,13.15
2018-09-01T06:06:49.327Z,13.19
2018-09-01T06:07:48.980Z,13.17
2018-09-01T06:08:48.947Z,13.07
2018-09-01T06:09:49.238Z,13
2018-09-01T06:10:49.051Z,13.07
2018-09-01T06:11:49.014Z,13.1
2018-09-01T06:12:49.044Z,12.99
2018-09-01T06:13:48.948Z,12.99
2018-09-01T06:14:48.992Z,13.01
2018-09-01T06:15:49.232Z,12.99
2018-09-01T06:16:48.949Z,13.03
2018-09-01T06:17:49.129Z,13.13
2018-09-01T06:18:49.001Z,13.01
2018-09-01T06:19:48.994Z,13.04
2018-09-01T06:20:48.957Z,13.06
2018-09-01T06:21:48.973Z,13.1
2018-09-01T06:22:49.008Z,13.15
2018-09-01T06:23:49.148Z,13.24
2018-09-01T06:24:49.412Z,13.24
2018-09-01T06:25:48.981Z,13.25
2018-09-01T06:26:49.010Z,13.21
2018-09-01T06:27:48.987Z,13.18
2018-09-01T06:28:48.982Z,13.19
2018-09-01T06:29:49.113Z,13.27
2018-09-01T06:30:49.005Z,13.29
2018-09-01T06:31:48.981Z,13.35
2018-09-01T06:32:49.405Z,13.32
2018-09-01T06:33:48.971Z,13.38
2018-09-01T06:34:49.346Z,13.41
2018-09-01T06:35:49.008Z,13.34
2018-09-01T06:36:48.972Z,13.39
2018-09-01T06:37:48.973Z,13.36
2018-09-01T06:38:48.968Z,13.36
2018-09-01T06:39:49.023Z,13.41
2018-09-01T06:40:49.006Z,13.47
2018-09-01T06:41:49.361Z,13.49
2018-09-01T06:42:49.127Z,13.46
2018-09-01T06:43:48.988Z,13.46
2018-09-01T06:44:48.985Z,13.5
2018-09-01T06:45:49.092Z,13.55
2018-09-01T06:46:48.996Z,13.59
2018-09-01T06:47:49.229Z,13.66
2018-09-01T06:48:48.994Z,13.76
2018-09-01T06:49:49.729Z,13.83
2018-09-01T06:50:49.066Z,13.83
2018-09-01T06:51:48.986Z,13.83
2018-09-01T06:52:49.012Z,13.91
2018-09-01T06:53:48.999Z,13.94
2018-09-01T06:54:49.105Z,14.02
2018-09-01T06:55:48.992Z,14.04
2018-09-01T06:56:49.253Z,14.1
2018-09-01T06:57:49.054Z,14.11
2018-09-01T06:58:49.022Z,14.14
2018-09-01T06:59:49.018Z,14.17
2018-09-01T07:00:49.173Z,14.25
2018-09-01T07:01:49.019Z,14.31
2018-09-01T07:02:49.048Z,14.36
2018-09-01T07:03:49.059Z,14.43
2018-09-01T07:04:49.119Z,14.45
2018-09-01T07:05:49.059Z,14.51
2018-09-01T07:06:49.034Z,14.49
2018-09-01T07:07:49.050Z,14.55
2018-09-01T07:08:49.651Z,14.58
2018-09-01T07:09:49.030Z,14.53
2018-09-01T07:10:49.033Z,14.48
2018-09-01T07:11:49.017Z,14.39
2018-09-01T07:12:49.013Z,14.46
2018-09-01T07:13:49.167Z,14.48
2018-09-01T07:14:49.051Z,14.43
2018-09-01T07:15:49.323Z,14.42
2018-09-01T07:16:49.042Z,14.45
2018-09-01T07:17:49.077Z,14.48
2018-09-01T07:18:49.042Z,14.45
2018-09-01T07:19:49.089Z,14.51
2018-09-01T07:20:49.022Z,14.56
2018-09-01T07:21:49.213Z,14.62
2018-09-01T07:22:49.344Z,14.62
2018-09-01T07:23:49.276Z,14.66
2018-09-01T07:24:49.071Z,14.7
2018-09-01T07:25:49.242Z,14.73
2018-09-01T07:26:49.037Z,14.74
2018-09-01T07:27:49.051Z,14.81
2018-09-01T07:28:49.106Z,14.84
2018-09-01T07:29:49.189Z,14.81
2018-09-01T07:30:50.543Z,14.83
2018-09-01T07:31:49.079Z,14.87
2018-09-01T07:32:49.296Z,14.91
2018-09-01T07:33:49.118Z,14.86
2018-09-01T07:34:49.034Z,14.9
2018-09-01T07:35:49.131Z,14.97
2018-09-01T07:36:49.375Z,15.02
2018-09-01T07:37:49.257Z,15.09
2018-09-01T07:38:49.100Z,15.17
2018-09-01T07:39:49.106Z,15.14
2018-09-01T07:40:49.056Z,15.18
2018-09-01T07:41:49.115Z,15.18
2018-09-01T07:42:49.840Z,15.22
2018-09-01T07:43:49.480Z,15.25
2018-09-01T07:44:49.192Z,15.21
2018-09-01T07:45:49.427Z,15.21
2018-09-01T07:46:49.050Z,15.19
2018-09-01T07:47:49.212Z,15.18
2018-09-01T07:48:49.187Z,15.19
2018-09-01T07:49:49.226Z,15.18
2018-09-01T07:50:49.537Z,15.22
2018-09-01T07:51:49.056Z,15.19
2018-09-01T07:52:49.164Z,15.22
2018-09-01T07:53:49.091Z,15.28
2018-09-01T07:54:49.270Z,15.31
2018-09-01T07:55:49.165Z,15.28
2018-09-01T07:56:49.249Z,15.34
2018-09-01T07:57:49.117Z,15.38
2018-09-01T07:58:49.103Z,15.41
2018-09-01T07:59:49.076Z,15.42
2018-09-01T08:00:49.154Z,15.45
2018-09-01T08:01:49.124Z,15.49
2018-09-01T08:02:49.628Z,15.49
2018-09-01T08:03:49.137Z,15.52
2018-09-01T08:04:49.077Z,15.5
2018-09-01T08:05:49.201Z,15.52
2018-09-01T08:06:49.257Z,15.47
2018-09-01T08:07:49.136Z,15.49
2018-09-01T08:08:49.086Z,15.49
2018-09-01T08:09:49.220Z,15.54
2018-09-01T08:10:49.078Z,15.64
2018-09-01T08:11:49.100Z,15.71
2018-09-01T08:12:49.076Z,15.77
2018-09-01T08:13:49.310Z,15.85
2018-09-01T08:14:49.210Z,15.92
2018-09-01T08:15:49.577Z,15.94
2018-09-01T08:16:49.188Z,15.99
2018-09-01T08:17:49.198Z,16.08
2018-09-01T08:18:49.198Z,16.12
2018-09-01T08:19:49.101Z,16.16
2018-09-01T08:20:49.089Z,16.21
2018-09-01T08:21:49.140Z,16.24
2018-09-01T08:22:49.114Z,16.29
2018-09-01T08:23:49.144Z,16.28
2018-09-01T08:24:49.129Z,16.29
2018-09-01T08:25:49.221Z,16.33
2018-09-01T08:26:49.147Z,16.37
2018-09-01T08:27:49.149Z,16.39
2018-09-01T08:28:49.114Z,16.4
2018-09-01T08:29:49.158Z,16.43
2018-09-01T08:30:49.258Z,16.5
2018-09-01T08:31:49.182Z,16.54
2018-09-01T08:32:49.160Z,16.64
2018-09-01T08:33:49.488Z,16.68
2018-09-01T08:34:49.205Z,16.67
2018-09-01T08:35:49.121Z,16.59
2018-09-01T08:36:50.093Z,16.62
2018-09-01T08:37:49.102Z,16.67
2018-09-01T08:38:49.114Z,16.73
2018-09-01T08:39:49.142Z,16.77
2018-09-01T08:40:49.476Z,16.84
2018-09-01T08:41:49.173Z,16.84
2018-09-01T08:42:49.287Z,16.87
2018-09-01T08:43:49.147Z,16.91
2018-09-01T08:44:49.504Z,16.99
2018-09-01T08:45:49.831Z,16.99
2018-09-01T08:46:49.357Z,17.12
2018-09-01T08:47:49.130Z,17.14
2018-09-01T08:48:49.138Z,17.12
2018-09-01T08:49:49.374Z,17.11
2018-09-01T08:50:49.253Z,17.18
2018-09-01T08:51:49.257Z,17.11
2018-09-01T08:52:49.325Z,17.14
2018-09-01T08:53:49.117Z,17.18
2018-09-01T08:54:49.411Z,17.19
2018-09-01T08:55:49.343Z,17.16
2018-09-01T08:56:49.179Z,17.15
2018-09-01T08:57:49.211Z,17.21
2018-09-01T08:58:49.152Z,17.33
2018-09-01T08:59:49.151Z,17.35
2018-09-01T09:00:49.371Z,17.36
2018-09-01T09:01:49.164Z,17.39
2018-09-01T09:02:49.205Z,17.43
2018-09-01T09:03:49.164Z,17.47
2018-09-01T09:04:49.364Z,17.66
2018-09-01T09:05:49.152Z,17.69
2018-09-01T09:06:49.185Z,17.69
2018-09-01T09:07:49.152Z,17.64
2018-09-01T09:08:49.212Z,17.73
2018-09-01T09:09:49.248Z,17.74
2018-09-01T09:10:49.149Z,17.76
2018-09-01T09:11:49.178Z,17.84
2018-09-01T09:12:49.182Z,17.89
2018-09-01T09:13:50.040Z,17.99
2018-09-01T09:14:49.509Z,18.12
2018-09-01T09:15:49.177Z,18.12
2018-09-01T09:16:49.169Z,18.09
2018-09-01T09:17:49.164Z,18.12
2018-09-01T09:18:49.538Z,18.08
2018-09-01T09:19:49.137Z,18.09
2018-09-01T09:20:49.217Z,18.11
2018-09-01T09:21:49.318Z,18.11
2018-09-01T09:22:49.189Z,18.16
2018-09-01T09:23:49.193Z,18.12
2018-09-01T09:24:49.283Z,18.16
2018-09-01T09:25:49.233Z,18.25
2018-09-01T09:26:49.194Z,18.27
2018-09-01T09:27:49.161Z,18.29
2018-09-01T09:28:49.290Z,18.35
2018-09-01T09:29:49.165Z,18.43
2018-09-01T09:30:49.197Z,18.4
2018-09-01T09:31:49.641Z,18.44
2018-09-01T09:32:49.186Z,18.42
2018-09-01T09:33:49.211Z,18.44
2018-09-01T09:34:49.172Z,18.46
2018-09-01T09:35:49.236Z,18.54
2018-09-01T09:36:49.300Z,18.64
2018-09-01T09:37:49.171Z,18.72
2018-09-01T09:38:49.169Z,18.75
2018-09-01T09:39:49.270Z,18.64
2018-09-01T09:40:49.281Z,18.68
2018-09-01T09:41:49.396Z,18.72
2018-09-01T09:42:49.200Z,18.82
2018-09-01T09:43:49.208Z,18.87
2018-09-01T09:44:49.216Z,18.82
2018-09-01T09:45:49.209Z,18.87
2018-09-01T09:46:49.218Z,18.84
2018-09-01T09:47:49.205Z,18.77
2018-09-01T09:48:49.227Z,18.74
2018-09-01T09:49:49.539Z,18.77
2018-09-01T09:50:49.190Z,18.81
2018-09-01T09:51:49.282Z,18.78
2018-09-01T09:52:49.335Z,18.78
2018-09-01T09:53:49.254Z,18.77
2018-09-01T09:54:49.223Z,18.81
2018-09-01T09:55:49.342Z,18.81
2018-09-01T09:56:49.228Z,18.77
2018-09-01T09:57:49.510Z,18.78
2018-09-01T09:58:49.198Z,18.77
2018-09-01T09:59:49.219Z,18.74
2018-09-01T10:00:49.345Z,18.74
2018-09-01T10:01:49.643Z,18.75
2018-09-01T10:02:50.105Z,18.77
2018-09-01T10:03:49.365Z,18.75
2018-09-01T10:04:49.407Z,18.75
2018-09-01T10:05:49.392Z,18.75
2018-09-01T10:06:49.252Z,18.74
2018-09-01T10:07:49.272Z,18.72
2018-09-01T10:08:49.281Z,18.74
2018-09-01T10:09:49.243Z,18.75
2018-09-01T10:10:49.268Z,18.71
2018-09-01T10:11:49.259Z,18.71
2018-09-01T10:12:49.455Z,18.74
2018-09-01T10:13:49.327Z,18.74
2018-09-01T10:14:49.260Z,18.78
2018-09-01T10:15:49.613Z,18.8
2018-09-01T10:16:49.714Z,18.8
2018-09-01T10:17:49.362Z,18.81
2018-09-01T10:18:49.277Z,18.84
2018-09-01T10:19:49.260Z,18.84
2018-09-01T10:20:49.250Z,18.82
2018-09-01T10:21:49.840Z,18.81
2018-09-01T10:22:49.647Z,18.78
2018-09-01T10:23:49.526Z,18.82
2018-09-01T10:24:49.331Z,18.8
2018-09-01T10:25:49.239Z,18.81
2018-09-01T10:26:49.717Z,18.81
2018-09-01T10:27:49.226Z,18.81
2018-09-01T10:28:49.248Z,18.82
2018-09-01T10:29:49.841Z,18.91
2018-09-01T10:30:49.519Z,19.06
2018-09-01T10:31:49.584Z,19.06
2018-09-01T10:32:49.388Z,19.13
2018-09-01T10:33:49.294Z,19.16
2018-09-01T10:34:49.299Z,19.19
2018-09-01T10:35:49.299Z,19.21
2018-09-01T10:36:49.255Z,19.19
2018-09-01T10:37:49.292Z,19.21
2018-09-01T10:38:49.312Z,19.22
2018-09-01T10:39:49.254Z,19.27
2018-09-01T10:40:49.278Z,19.29
2018-09-01T10:41:49.270Z,19.3
2018-09-01T10:42:49.254Z,19.33
2018-09-01T10:43:49.261Z,19.33
2018-09-01T10:44:49.721Z,19.36
2018-09-01T10:45:49.297Z,19.42
2018-09-01T10:46:49.487Z,19.37
2018-09-01T10:47:49.350Z,19.43
2018-09-01T10:48:49.540Z,19.44
2018-09-01T10:49:49.406Z,19.5
2018-09-01T10:50:49.548Z,19.6
2018-09-01T10:51:49.270Z,19.6
2018-09-01T10:52:49.569Z,19.64
2018-09-01T10:53:49.781Z,19.84
2018-09-01T10:54:49.479Z,19.88
2018-09-01T10:55:49.307Z,20.08
2018-09-01T10:56:49.433Z,20.33
2018-09-01T10:57:49.274Z,20.29
2018-09-01T10:58:49.387Z,20.36
2018-09-01T10:59:49.563Z,20.29
2018-09-01T11:00:49.274Z,20.27
2018-09-01T11:01:49.326Z,20.26
2018-09-01T11:02:49.418Z,20.17
2018-09-01T11:03:49.324Z,20.13
2018-09-01T11:04:49.334Z,20.09
2018-09-01T11:05:49.309Z,20.05
2018-09-01T11:06:49.293Z,19.96
2018-09-01T11:07:49.281Z,19.93
2018-09-01T11:08:49.289Z,19.98
2018-09-01T11:09:49.788Z,19.99
2018-09-01T11:10:49.335Z,19.91
2018-09-01T11:11:49.416Z,19.84
2018-09-01T11:12:49.302Z,19.85
2018-09-01T11:13:49.356Z,19.84
2018-09-01T11:14:49.343Z,19.81
2018-09-01T11:15:49.319Z,19.84
2018-09-01T11:16:49.326Z,19.84
2018-09-01T11:17:49.312Z,19.82
2018-09-01T11:18:49.288Z,19.82
2018-09-01T11:19:49.330Z,19.91
2018-09-01T11:20:49.537Z,19.88
2018-09-01T11:21:50.126Z,19.84
2018-09-01T11:22:49.367Z,19.82
2018-09-01T11:23:49.313Z,19.84
2018-09-01T11:24:49.396Z,19.88
2018-09-01T11:25:49.320Z,20.01
2018-09-01T11:26:49.336Z,20.27
2018-09-01T11:27:49.536Z,20.41
2018-09-01T11:28:49.364Z,20.54
2018-09-01T11:29:49.418Z,20.51
2018-09-01T11:30:49.515Z,20.52
2018-09-01T11:31:50.047Z,20.43
2018-09-01T11:32:49.431Z,20.33
2018-09-01T11:33:49.648Z,20.32
2018-09-01T11:34:49.445Z,20.29
2018-09-01T11:35:49.336Z,20.24
2018-09-01T11:36:49.494Z,20.22
2018-09-01T11:37:50.500Z,20.19
2018-09-01T11:38:49.334Z,20.17
2018-09-01T11:39:49.484Z,20.17
2018-09-01T11:40:49.488Z,20.15
2018-09-01T11:41:49.311Z,20.12
2018-09-01T11:42:49.889Z,20.13
2018-09-01T11:43:49.454Z,20.3
2018-09-01T11:44:49.552Z,20.39
2018-09-01T11:45:49.519Z,20.52
2018-09-01T11:46:49.550Z,20.6
2018-09-01T11:47:49.491Z,20.65
2018-09-01T11:48:49.478Z,20.78
2018-09-01T11:49:49.374Z,20.89
2018-09-01T11:50:49.490Z,21.02
2018-09-01T11:51:49.503Z,21.06
2018-09-01T11:52:49.401Z,21.15
2018-09-01T11:53:49.382Z,21.13
2018-09-01T11:54:49.375Z,21.19
2018-09-01T11:55:49.926Z,21.27
2018-09-01T11:56:49.416Z,21.33
2018-09-01T11:57:49.421Z,21.37
2018-09-01T11:58:50.094Z,21.34
2018-09-01T11:59:49.434Z,21.5
2018-09-01T12:00:49.522Z,21.32
2018-09-01T12:01:49.653Z,21.2
2018-09-01T12:02:49.433Z,21.17
2018-09-01T12:03:49.668Z,21.19
2018-09-01T12:04:49.470Z,21.16
2018-09-01T12:05:49.411Z,21.09
2018-09-01T12:06:49.818Z,21.06
2018-09-01T12:07:49.670Z,21.03
2018-09-01T12:08:49.566Z,20.95
2018-09-01T12:09:49.366Z,20.91
2018-09-01T12:10:49.434Z,20.79
2018-09-01T12:11:49.815Z,20.79
2018-09-01T12:12:49.376Z,20.72
2018-09-01T12:13:49.396Z,20.74
2018-09-01T12:14:49.519Z,20.71
2018-09-01T12:15:49.626Z,20.62
2018-09-01T12:16:49.428Z,20.64
2018-09-01T12:17:49.702Z,20.65
2018-09-01T12:18:49.508Z,20.65
2018-09-01T12:19:49.382Z,20.61
2018-09-01T12:20:49.413Z,20.72
2018-09-01T12:21:49.402Z,20.68
2018-09-01T12:22:49.471Z,20.7
2018-09-01T12:23:49.381Z,20.75
2018-09-01T12:24:49.412Z,20.71
2018-09-01T12:25:49.378Z,20.71
2018-09-01T12:26:49.454Z,20.74
2018-09-01T12:27:49.676Z,20.82
2018-09-01T12:28:49.430Z,20.84
2018-09-01T12:29:49.525Z,20.82
2018-09-01T12:30:49.426Z,20.82
2018-09-01T12:31:49.387Z,20.88
2018-09-01T12:32:49.429Z,20.85
2018-09-01T12:33:49.423Z,20.87
2018-09-01T12:34:49.546Z,20.85
2018-09-01T12:35:49.453Z,20.84
2018-09-01T12:36:49.409Z,20.85
2018-09-01T12:37:49.576Z,20.75
2018-09-01T12:38:49.395Z,20.77
2018-09-01T12:39:49.403Z,20.85
2018-09-01T12:40:49.410Z,20.84
2018-09-01T12:41:49.904Z,20.79
2018-09-01T12:42:49.423Z,20.85
2018-09-01T12:43:49.461Z,20.88
2018-09-01T12:44:49.614Z,20.91
2018-09-01T12:45:49.734Z,20.98
2018-09-01T12:46:49.469Z,20.98
2018-09-01T12:47:49.498Z,20.94
2018-09-01T12:48:49.511Z,21.01
2018-09-01T12:49:49.412Z,21.07
2018-09-01T12:50:49.515Z,21.16
2018-09-01T12:51:49.500Z,21.26
2018-09-01T12:52:50.414Z,21.36
2018-09-01T12:53:49.688Z,21.43
2018-09-01T12:54:49.535Z,21.53